Time;durP1;ratioP1;P1;durP2;ratioP2;P2;SDS_P1;SDS_P2;PMS_P1;PMS_P2;Temp;Humidity;BMP_temperature;BMP_pressure;BME280_temperature;BME280_humidity;BME280_pressure;Samples;Min_cycle;Max_cycle;Signal;HPM_P1;HPM_P2
2023/01/08 00:01:09;;;;;;;5.55;2.40;;;;;;;9.85;100.00;100266.16;5011155;28;20141;-71
2023/01/08 00:03:35;;;;;;;6.07;2.80;;;;;;;9.85;100.00;100268.81;5018697;28;20061;-71
2023/01/08 00:06:08;;;;;;;5.90;3.17;;;;;;;9.91;100.00;100264.03;5011038;28;20086;-71
2023/01/08 00:08:33;;;;;;;4.70;2.72;;;;;;;9.89;100.00;100271.25;5012495;28;20073;-71
2023/01/08 00:10:59;;;;;;;7.32;3.53;;;;;;;9.87;100.00;100268.69;5018338;28;20046;-71
2023/01/08 00:13:25;;;;;;;8.10;2.90;;;;;;;9.78;100.00;100270.19;5011849;28;20781;-71
2023/01/08 00:15:51;;;;;;;8.95;3.08;;;;;;;9.84;100.00;100258.28;5003619;28;20053;-71
2023/01/08 00:18:17;;;;;;;5.68;3.05;;;;;;;9.85;100.00;100246.66;5020230;28;20108;-70
2023/01/08 00:20:44;;;;;;;4.65;3.33;;;;;;;9.70;100.00;100253.91;5016058;28;20103;-71
2023/01/08 00:23:11;;;;;;;2.67;2.47;;;;;;;9.67;100.00;100248.78;5016136;28;20204;-71
2023/01/08 00:25:36;;;;;;;3.92;2.55;;;;;;;9.60;100.00;100255.50;5012359;28;20042;-71
2023/01/08 00:28:02;;;;;;;9.10;3.17;;;;;;;9.58;100.00;100249.41;4998103;28;20057;-71
2023/01/08 00:30:28;;;;;;;8.18;3.33;;;;;;;9.65;100.00;100245.38;5018995;28;20049;-71
2023/01/08 00:32:53;;;;;;;5.15;3.10;;;;;;;9.68;100.00;100246.97;5008624;28;20061;-72
2023/01/08 00:35:19;;;;;;;9.05;3.80;;;;;;;9.65;100.00;100245.38;5020555;28;20064;-71
2023/01/08 00:37:48;;;;;;;4.47;3.28;;;;;;;9.66;100.00;100240.91;5018813;28;20046;-71
2023/01/08 00:40:13;;;;;;;8.05;3.67;;;;;;;9.68;100.00;100238.97;4999541;28;20042;-71
2023/01/08 00:42:38;;;;;;;4.18;2.95;;;;;;;9.73;100.00;100231.53;5008778;28;20418;-71
2023/01/08 00:45:05;;;;;;;4.93;3.30;;;;;;;9.68;100.00;100229.19;5012210;28;20045;-71
2023/01/08 00:47:30;;;;;;;3.95;3.05;;;;;;;9.77;100.00;100238.34;5007916;28;20061;-71
2023/01/08 00:49:55;;;;;;;5.90;3.00;;;;;;;9.76;100.00;100237.50;5012507;28;20068;-71
2023/01/08 00:52:21;;;;;;;7.93;3.08;;;;;;;9.83;100.00;100227.25;4988925;28;20037;-70
2023/01/08 00:54:46;;;;;;;9.32;4.60;;;;;;;9.68;100.00;100226.53;5018797;28;20064;-71
2023/01/08 00:57:12;;;;;;;3.67;2.85;;;;;;;9.72;100.00;100224.50;5013373;28;20061;-71
2023/01/08 00:59:37;;;;;;;4.43;3.08;;;;;;;9.73;100.00;100213.75;5013205;28;20096;-71
2023/01/08 01:02:03;;;;;;;6.47;3.58;;;;;;;9.70;100.00;100215.78;4990349;28;20843;-71
2023/01/08 01:04:28;;;;;;;5.10;3.28;;;;;;;9.58;100.00;100210.34;5008769;28;20053;-71
2023/01/08 01:06:54;;;;;;;6.38;3.03;;;;;;;9.60;100.00;100212.91;5014956;28;20410;-71
2023/01/08 01:09:19;;;;;;;6.15;3.45;;;;;;;9.51;100.00;100211.72;5013677;28;20578;-70
2023/01/08 01:11:44;;;;;;;4.95;3.53;;;;;;;9.63;100.00;100217.16;5011732;28;20046;-71
2023/01/08 01:14:10;;;;;;;9.45;3.47;;;;;;;9.58;100.00;100213.00;5012989;28;20045;-72
2023/01/08 01:16:35;;;;;;;5.95;3.05;;;;;;;9.63;100.00;100212.69;5010186;28;20045;-71
2023/01/08 01:19:01;;;;;;;5.32;3.15;;;;;;;9.65;100.00;100212.59;4999731;28;20046;-71
2023/01/08 01:21:29;;;;;;;9.65;3.50;;;;;;;9.65;100.00;100210.78;4996099;28;20864;-71
2023/01/08 01:23:57;;;;;;;4.80;3.20;;;;;;;9.62;100.00;100212.78;5019442;28;20457;-71
2023/01/08 01:26:24;;;;;;;5.18;3.25;;;;;;;9.72;100.00;100200.53;5006843;28;20849;-71
2023/01/08 01:28:52;;;;;;;7.05;3.17;;;;;;;9.71;100.00;100194.38;5012966;28;20299;-71
2023/01/08 01:31:18;;;;;;;5.97;3.28;;;;;;;9.70;100.00;100187.34;5010996;28;20087;-71
2023/01/08 01:33:44;;;;;;;8.50;3.22;;;;;;;9.68;100.00;100186.59;5014027;28;20049;-71
2023/01/08 01:36:14;;;;;;;6.00;3.45;;;;;;;9.73;100.00;100187.13;5017620;28;20041;-71
2023/01/08 01:38:44;;;;;;;4.90;3.08;;;;;;;9.67;100.00;100200.88;4983646;28;20045;-71
2023/01/08 01:41:32;;;;;;;5.28;3.10;;;;;;;9.79;100.00;100193.84;4994315;28;20692;-71
2023/01/08 01:44:00;;;;;;;5.78;3.17;;;;;;;9.72;100.00;100193.41;5017103;28;20056;-74
2023/01/08 01:46:34;;;;;;;6.85;3.30;;;;;;;9.74;100.00;100198.63;5012505;28;20083;-71
2023/01/08 01:49:05;;;;;;;11.80;3.28;;;;;;;9.66;100.00;100195.66;5001234;28;20424;-71
2023/01/08 01:51:33;;;;;;;10.57;3.33;;;;;;;9.76;100.00;100199.38;5009882;28;20089;-70
2023/01/08 01:54:01;;;;;;;7.90;3.35;;;;;;;9.64;100.00;100203.75;5009906;28;20434;-72
2023/01/08 01:56:28;;;;;;;6.18;3.13;;;;;;;9.63;100.00;100198.53;5015246;28;20777;-71
2023/01/08 01:58:54;;;;;;;9.85;3.13;;;;;;;9.66;100.00;100188.53;4994496;28;20064;-70
2023/01/08 02:01:20;;;;;;;7.30;3.15;;;;;;;9.71;100.00;100186.38;5019447;28;20045;-71
2023/01/08 02:03:46;;;;;;;7.47;3.22;;;;;;;9.60;100.00;100200.44;4989221;28;20405;-72
2023/01/08 02:06:25;;;;;;;6.68;3.63;;;;;;;9.58;100.00;100199.69;4994320;28;20057;-71
2023/01/08 02:09:15;;;;;;;6.72;3.85;;;;;;;9.59;100.00;100192.59;5010282;28;20111;-71
2023/01/08 02:12:16;;;;;;;5.50;3.35;;;;;;;9.55;100.00;100197.25;4999822;28;20046;-71
2023/01/08 02:15:12;;;;;;;11.10;3.90;;;;;;;9.66;100.00;100185.00;5010446;28;20049;-71
2023/01/08 02:18:02;;;;;;;4.45;2.85;;;;;;;9.70;100.00;100186.50;5015189;28;21139;-71
2023/01/08 02:20:34;;;;;;;10.00;3.28;;;;;;;9.62;100.00;100192.34;5016533;28;20048;-71
2023/01/08 02:23:24;;;;;;;6.03;2.92;;;;;;;9.66;100.00;100180.53;5011935;28;20048;-72
2023/01/08 02:26:05;;;;;;;6.43;3.33;;;;;;;9.73;100.00;100175.63;5004775;28;20156;-71
2023/01/08 02:28:36;;;;;;;10.00;3.15;;;;;;;9.77;100.00;100172.63;5018397;28;20041;-70
2023/01/08 02:31:01;;;;;;;6.22;3.80;;;;;;;9.72;100.00;100168.59;5004765;28;20052;-72
2023/01/08 02:33:28;;;;;;;7.22;3.25;;;;;;;9.73;100.00;100172.97;5012945;28;20050;-71
2023/01/08 02:36:31;;;;;;;6.60;4.47;;;;;;;9.69;100.00;100164.34;5010576;28;20057;-71
2023/01/08 02:39:06;;;;;;;;;;;;;;;9.72;100.00;100160.63;4993387;28;20046;-71
2023/01/08 02:41:55;;;;;;;8.18;3.75;;;;;;;9.79;100.00;100159.25;5015883;28;19953;-71
2023/01/08 02:44:29;;;;;;;9.32;3.30;;;;;;;9.74;100.00;100164.88;4985747;28;20135;-72
2023/01/08 02:46:57;;;;;;;6.30;3.35;;;;;;;9.71;100.00;100157.09;5016546;28;20041;-71
2023/01/08 02:49:29;;;;;;;7.50;3.15;;;;;;;9.73;100.00;100159.66;5015334;28;20064;-71
2023/01/08 02:51:56;;;;;;;7.10;3.45;;;;;;;9.66;100.00;100161.91;5020789;28;20053;-71
2023/01/08 02:54:28;;;;;;;10.93;3.53;;;;;;;9.70;100.00;100159.88;5022483;28;20071;-71
2023/01/08 02:57:01;;;;;;;7.03;3.17;;;;;;;9.75;100.00;100155.94;5004169;28;20057;-71
2023/01/08 02:59:30;;;;;;;7.75;2.92;;;;;;;9.72;100.00;100152.63;5015119;28;20073;-71
2023/01/08 03:01:56;;;;;;;6.05;2.42;;;;;;;9.59;100.00;100153.50;5004603;28;20894;-72
2023/01/08 03:04:24;;;;;;;2.53;1.98;;;;;;;9.43;100.00;100157.31;5023080;28;20807;-71
2023/01/08 03:06:50;;;;;;;5.50;1.95;;;;;;;9.34;100.00;100169.47;5023733;28;20045;-71
2023/01/08 03:09:17;;;;;;;7.30;2.72;;;;;;;9.12;100.00;100166.56;5014152;28;20059;-71
2023/01/08 03:11:59;;;;;;;2.47;0.90;;;;;;;8.95;100.00;100165.91;5009802;28;20046;-71
2023/01/08 03:14:42;;;;;;;3.90;1.50;;;;;;;8.71;100.00;100173.72;5012731;28;20046;-72
2023/01/08 03:17:17;;;;;;;3.50;1.30;;;;;;;8.56;100.00;100169.41;4996148;28;20050;-71
2023/01/08 03:19:51;;;;;;;1.98;0.95;;;;;;;8.51;100.00;100167.06;5005157;28;20294;-71
2023/01/08 03:22:18;;;;;;;2.13;0.85;;;;;;;8.40;100.00;100171.38;5015745;28;20056;-72
2023/01/08 03:24:48;;;;;;;2.35;1.15;;;;;;;8.45;100.00;100172.78;5018269;28;20054;-72
2023/01/08 03:27:18;;;;;;;6.43;0.95;;;;;;;8.28;100.00;100173.88;5017818;28;20157;-71
2023/01/08 03:29:47;;;;;;;7.35;1.27;;;;;;;8.31;100.00;100173.66;5009130;28;20057;-71
2023/01/08 03:32:16;;;;;;;5.93;1.13;;;;;;;8.27;100.00;100172.13;5004189;28;20088;-72
2023/01/08 03:34:44;;;;;;;2.00;0.90;;;;;;;8.25;100.00;100167.88;5014631;28;20034;-72
2023/01/08 03:37:12;;;;;;;6.00;0.90;;;;;;;8.30;100.00;100179.06;5019143;28;20131;-72
2023/01/08 03:39:56;;;;;;;5.20;1.27;;;;;;;8.05;100.00;100183.28;5000102;28;20387;-72
2023/01/08 03:42:22;;;;;;;5.88;1.13;;;;;;;8.10;100.00;100175.03;5021259;28;20140;-72
2023/01/08 03:44:47;;;;;;;7.90;1.13;;;;;;;8.14;100.00;100181.00;5020585;28;20049;-72
2023/01/08 03:47:14;;;;;;;2.47;1.10;;;;;;;8.05;100.00;100183.28;5021067;28;20062;-72
2023/01/08 03:49:42;;;;;;;9.23;1.38;;;;;;;8.13;100.00;100174.81;5012086;28;20056;-72
2023/01/08 03:52:08;;;;;;;2.30;1.33;;;;;;;8.13;100.00;100171.31;5014237;28;20053;-72
2023/01/08 03:54:35;;;;;;;8.00;1.10;;;;;;;8.04;100.00;100170.97;5003709;28;20068;-74
2023/01/08 03:57:01;;;;;;;5.00;1.30;;;;;;;8.14;100.00;100179.19;5021839;28;20076;-72
2023/01/08 03:59:27;;;;;;;8.32;1.52;;;;;;;8.08;100.00;100176.91;5022374;28;20141;-72
2023/01/08 04:01:53;;;;;;;7.55;1.70;;;;;;;8.11;100.00;100168.75;4988019;28;20069;-72
2023/01/08 04:04:18;;;;;;;11.45;3.08;;;;;;;8.10;100.00;100164.41;5005126;28;20175;-72
2023/01/08 04:06:44;;;;;;;3.97;1.30;;;;;;;8.16;100.00;100163.16;5018097;28;20049;-72
2023/01/08 04:09:09;;;;;;;4.32;1.63;;;;;;;8.13;100.00;100171.31;5003830;28;20045;-72
2023/01/08 04:11:35;;;;;;;2.58;1.00;;;;;;;8.09;100.00;100164.53;5004266;28;20057;-72
2023/01/08 04:14:00;;;;;;;4.85;1.10;;;;;;;8.07;100.00;100164.59;5019073;28;20041;-72
2023/01/08 04:16:26;;;;;;;7.07;1.77;;;;;;;8.09;100.00;100164.53;5014263;28;20403;-72
2023/01/08 04:18:51;;;;;;;5.68;0.90;;;;;;;8.00;100.00;100160.63;5019660;28;20040;-71
2023/01/08 04:21:17;;;;;;;3.55;1.42;;;;;;;8.10;100.00;100160.91;5015943;28;20056;-72
2023/01/08 04:23:42;;;;;;;5.93;1.30;;;;;;;8.21;100.00;100156.59;5004913;28;20100;-72
2023/01/08 04:26:08;;;;;;;4.45;1.00;;;;;;;8.07;100.00;100146.00;5001295;28;20053;-72
2023/01/08 04:28:34;;;;;;;3.75;1.35;;;;;;;8.01;100.00;100152.56;5018946;28;20043;-72
2023/01/08 04:30:59;;;;;;;7.63;1.30;;;;;;;8.05;100.00;100143.47;5001481;28;20506;-72
2023/01/08 04:33:24;;;;;;;3.97;1.13;;;;;;;8.11;100.00;100142.22;4990947;28;20049;-72
2023/01/08 04:35:51;;;;;;;5.50;1.23;;;;;;;8.08;100.00;100138.88;5022242;28;20045;-71
2023/01/08 04:38:17;;;;;;;3.03;1.20;;;;;;;8.07;100.00;100135.38;4996408;28;20687;-72
2023/01/08 04:40:42;;;;;;;5.00;1.50;;;;;;;8.10;100.00;100131.69;5004406;28;20049;-72
2023/01/08 04:43:08;;;;;;;4.20;1.13;;;;;;;8.04;100.00;100124.97;5001362;28;20037;-72
2023/01/08 04:45:33;;;;;;;6.00;1.30;;;;;;;8.02;100.00;100122.41;5017482;28;20045;-71
2023/01/08 04:47:59;;;;;;;7.13;1.42;;;;;;;8.10;100.00;100116.63;5001933;28;20037;-72
2023/01/08 04:50:25;;;;;;;5.68;1.40;;;;;;;8.10;100.00;100116.63;5001881;28;20572;-72
2023/01/08 04:52:51;;;;;;;7.47;2.20;;;;;;;8.15;100.00;100119.81;5016720;28;20840;-71
2023/01/08 04:55:16;;;;;;;3.15;1.00;;;;;;;8.08;100.00;100117.66;4998336;28;20053;-72
2023/01/08 04:57:42;;;;;;;4.38;1.35;;;;;;;8.21;100.00;100121.22;5008154;28;20053;-72
2023/01/08 05:00:08;;;;;;;5.68;1.20;;;;;;;8.19;100.00;100115.19;5014528;28;20046;-72
2023/01/08 05:02:33;;;;;;;5.15;1.10;;;;;;;8.10;100.00;100102.50;5009530;28;20053;-72
2023/01/08 05:04:59;;;;;;;5.22;1.50;;;;;;;8.24;100.00;100094.47;5012556;28;20115;-72
2023/01/08 05:07:24;;;;;;;4.10;1.40;;;;;;;8.12;100.00;100090.81;5012617;28;20057;-72
2023/01/08 05:09:50;;;;;;;5.20;1.25;;;;;;;8.13;100.00;100089.84;5014447;28;20049;-72
2023/01/08 05:12:16;;;;;;;2.72;1.00;;;;;;;8.15;100.00;100100.38;5012396;28;20056;-72
2023/01/08 05:14:41;;;;;;;7.15;1.40;;;;;;;8.24;100.00;100105.09;4987561;28;20058;-72
2023/01/08 05:17:07;;;;;;;9.20;1.60;;;;;;;8.13;100.00;100102.28;4974371;28;20049;-72
2023/01/08 05:19:32;;;;;;;4.15;1.05;;;;;;;8.21;100.00;100106.13;5013733;28;20045;-72
2023/01/08 05:21:57;;;;;;;8.80;1.80;;;;;;;8.11;100.00;100094.41;5016894;28;20569;-73
2023/01/08 05:24:23;;;;;;;3.92;1.13;;;;;;;8.10;100.00;100099.84;4989785;28;20057;-72
2023/01/08 05:26:50;;;;;;;4.60;1.27;;;;;;;8.26;100.00;100104.03;5018428;28;20608;-71
2023/01/08 05:29:15;;;;;;;4.70;1.42;;;;;;;8.20;100.00;100109.75;5009087;28;20052;-71
2023/01/08 05:31:41;;;;;;;7.10;1.60;;;;;;;8.15;100.00;100106.53;5020198;28;20038;-71
2023/01/08 05:34:06;;;;;;;6.47;1.13;;;;;;;8.13;100.00;100107.59;5020443;28;20041;-72
2023/01/08 05:36:32;;;;;;;5.55;1.30;;;;;;;8.17;100.00;100101.13;5002458;28;20720;-71
2023/01/08 05:38:57;;;;;;;6.60;1.50;;;;;;;8.11;100.00;100093.56;5002113;28;20041;-72
2023/01/08 05:41:23;;;;;;;5.20;1.40;;;;;;;8.15;100.00;100093.28;5014210;28;20060;-72
2023/01/08 05:43:50;;;;;;;8.75;1.30;;;;;;;8.09;100.00;100095.47;5003524;28;20046;-72
2023/01/08 05:46:15;;;;;;;2.50;1.15;;;;;;;8.08;100.00;100097.25;4991239;28;20054;-71
2023/01/08 05:48:41;;;;;;;3.83;1.65;;;;;;;8.20;100.00;100085.84;4998269;28;20705;-71
2023/01/08 05:51:06;;;;;;;3.70;1.50;;;;;;;8.19;100.00;100099.25;4990978;28;20054;-71
2023/01/08 05:53:32;;;;;;;4.68;1.60;;;;;;;8.17;100.00;100090.50;5019670;28;20042;-72
2023/01/08 05:56:02;;;;;;;7.18;2.03;;;;;;;8.17;100.00;100103.78;4991178;28;20060;-72
2023/01/08 05:58:28;;;;;;;3.53;1.38;;;;;;;8.24;100.00;100089.16;5002183;28;20049;-72
2023/01/08 06:01:00;;;;;;;2.60;1.60;;;;;;;8.23;100.00;100088.31;5015611;28;20050;-73
2023/01/08 06:03:25;;;;;;;4.03;1.40;;;;;;;8.23;100.00;100084.78;5019237;28;20049;-72
2023/01/08 06:05:50;;;;;;;3.60;2.40;;;;;;;8.16;100.00;100088.81;5024411;28;20042;-72
2023/01/08 06:08:16;;;;;;;3.65;1.80;;;;;;;8.25;100.00;100083.75;5014517;28;20041;-72
2023/01/08 06:10:41;;;;;;;5.88;1.90;;;;;;;8.22;100.00;100089.25;5019616;28;20486;-72
2023/01/08 06:13:08;;;;;;;5.88;1.75;;;;;;;8.27;100.00;100084.47;5022151;28;20158;-72
2023/01/08 06:15:33;;;;;;;5.35;1.60;;;;;;;8.29;100.00;100090.56;5002435;28;20111;-72
2023/01/08 06:18:02;;;;;;;4.53;1.55;;;;;;;8.34;100.00;100089.41;5017562;28;20042;-72
2023/01/08 06:20:28;;;;;;;1.63;1.20;;;;;;;8.29;100.00;100089.72;5005444;28;20045;-72
2023/01/08 06:22:53;;;;;;;5.68;1.90;;;;;;;8.50;100.00;100092.78;5014543;28;20103;-72
2023/01/08 06:25:19;;;;;;;3.38;1.02;;;;;;;8.44;100.00;100087.88;5023879;28;20581;-72
2023/01/08 06:27:50;;;;;;;3.33;1.65;;;;;;;8.38;100.00;100093.56;5023816;28;20041;-72
2023/01/08 06:30:15;;;;;;;3.63;1.27;;;;;;;8.42;100.00;100105.72;5006420;28;20564;-72
2023/01/08 06:32:41;;;;;;;5.50;1.38;;;;;;;8.54;100.00;100100.44;5023577;28;20050;-72
2023/01/08 06:35:07;;;;;;;5.95;2.03;;;;;;;8.34;100.00;100090.25;5004874;28;20049;-72
2023/01/08 06:37:32;;;;;;;3.97;1.38;;;;;;;8.41;100.00;100075.63;5016853;28;20046;-72
2023/01/08 06:39:57;;;;;;;3.85;1.73;;;;;;;8.40;100.00;100092.53;5018472;28;20046;-72
2023/01/08 06:42:23;;;;;;;4.15;1.50;;;;;;;8.46;100.00;100092.13;5012341;28;20042;-71
2023/01/08 06:44:48;;;;;;;7.35;1.83;;;;;;;8.36;100.00;100103.44;5023068;28;20041;-72
2023/01/08 06:47:14;;;;;;;5.80;1.63;;;;;;;8.31;100.00;100107.25;4981687;28;20064;-72
2023/01/08 06:49:39;;;;;;;4.78;2.00;;;;;;;8.39;100.00;100104.13;4984939;28;20049;-72
2023/01/08 06:52:05;;;;;;;9.80;2.03;;;;;;;8.29;100.00;100105.66;5014280;28;20052;-72
2023/01/08 06:54:30;;;;;;;7.50;2.67;;;;;;;8.19;100.00;100109.88;5009063;28;20056;-72
2023/01/08 06:56:56;;;;;;;7.35;2.75;;;;;;;8.07;100.00;100113.28;5016216;28;20091;-72
2023/01/08 06:59:21;;;;;;;4.63;2.13;;;;;;;8.02;100.00;100110.94;5016232;28;20490;-72
2023/01/08 07:01:47;;;;;;;7.78;2.22;;;;;;;7.94;100.00;100115.91;5022914;28;20037;-71
2023/01/08 07:04:13;;;;;;;6.90;1.98;;;;;;;7.95;100.00;100114.94;5022925;28;20124;-72
2023/01/08 07:06:38;;;;;;;5.22;2.08;;;;;;;7.76;100.00;100108.16;5017336;28;20056;-72
2023/01/08 07:09:04;;;;;;;4.70;1.83;;;;;;;7.68;100.00;100118.41;5020568;28;20885;-72
2023/01/08 07:11:29;;;;;;;7.63;1.92;;;;;;;7.65;100.00;100126.56;5017410;28;20548;-73
2023/01/08 07:13:55;;;;;;;7.72;2.10;;;;;;;7.55;100.00;100117.47;5014609;28;20050;-72
2023/01/08 07:16:21;;;;;;;8.55;2.47;;;;;;;7.58;100.00;100119.06;5012926;28;20505;-72
2023/01/08 07:18:46;;;;;;;7.50;3.40;;;;;;;7.50;100.00;100119.56;5014012;28;20057;-72
2023/01/08 07:21:12;;;;;;;7.90;3.67;;;;;;;7.46;100.00;100123.34;5018655;28;20065;-71
2023/01/08 07:23:38;;;;;;;8.15;3.42;;;;;;;7.40;100.00;100121.94;4993266;28;20057;-72
2023/01/08 07:26:06;;;;;;;6.60;2.58;;;;;;;7.30;100.00;100112.00;4991905;28;20057;-72
2023/01/08 07:28:31;;;;;;;7.50;2.38;;;;;;;7.20;100.00;100111.69;5014502;28;20049;-72
2023/01/08 07:31:01;;;;;;;5.00;1.83;;;;;;;7.11;100.00;100112.25;5016282;28;20796;-72
2023/01/08 07:33:26;;;;;;;9.48;1.65;;;;;;;7.16;100.00;100110.16;5022263;28;20041;-71
2023/01/08 07:35:53;;;;;;;8.55;1.38;;;;;;;7.12;100.00;100112.16;5019519;28;20384;-71
2023/01/08 07:38:18;;;;;;;5.35;1.52;;;;;;;7.14;100.00;100112.06;5014134;28;20049;-72
2023/01/08 07:40:44;;;;;;;4.85;1.92;;;;;;;7.10;100.00;100115.84;5020326;28;20041;-72
2023/01/08 07:43:11;;;;;;;10.65;1.67;;;;;;;7.17;100.00;100111.88;4988456;28;20839;-72
2023/01/08 07:45:37;;;;;;;8.27;1.65;;;;;;;7.16;100.00;100105.72;4999614;28;20060;-72
2023/01/08 07:48:03;;;;;;;8.75;1.58;;;;;;;7.23;100.00;100107.06;5000638;28;20871;-71
2023/01/08 07:50:28;;;;;;;4.20;1.33;;;;;;;7.25;100.00;100105.16;5018742;28;20467;-72
2023/01/08 07:53:00;;;;;;;3.42;1.27;;;;;;;7.17;100.00;100106.56;5018662;28;20045;-71
2023/01/08 07:55:27;;;;;;;8.68;1.33;;;;;;;7.13;100.00;100105.03;5017984;28;20077;-72
2023/01/08 07:57:53;;;;;;;5.57;1.85;;;;;;;7.27;100.00;100102.41;5004100;28;20053;-71
2023/01/08 08:00:18;;;;;;;6.28;1.60;;;;;;;7.34;100.00;100105.56;4989433;28;20042;-72
2023/01/08 08:02:44;;;;;;;7.80;1.33;;;;;;;7.40;100.00;100102.50;5016410;28;20041;-71
2023/01/08 08:05:09;;;;;;;6.05;1.40;;;;;;;7.33;100.00;100103.81;4994822;28;20041;-71
2023/01/08 08:07:35;;;;;;;3.58;1.33;;;;;;;7.32;100.00;100097.66;5018140;28;20046;-71
2023/01/08 08:10:01;;;;;;;7.68;2.45;;;;;;;7.19;100.00;100104.69;5000271;28;20049;-71
2023/01/08 08:12:27;;;;;;;13.63;1.95;;;;;;;7.29;100.00;100105.84;5002050;28;20053;-70
2023/01/08 08:14:52;;;;;;;12.98;1.85;;;;;;;7.27;100.00;100107.72;5014267;28;20046;-71
2023/01/08 08:17:17;;;;;;;8.55;1.77;;;;;;;7.15;100.00;100105.81;5030483;28;20068;-72
2023/01/08 08:19:44;;;;;;;5.88;1.50;;;;;;;7.25;100.00;100109.63;5018089;28;20065;-71
2023/01/08 08:22:11;;;;;;;10.75;1.92;;;;;;;7.25;100.00;100117.56;4988885;28;20042;-71
2023/01/08 08:24:36;;;;;;;13.88;1.83;;;;;;;7.27;100.00;100108.56;5017815;28;20049;-71
2023/01/08 08:27:02;;;;;;;12.40;1.58;;;;;;;7.21;100.00;100100.13;4997851;28;89126;-71
2023/01/08 08:29:27;;;;;;;6.82;2.38;;;;;;;7.25;100.00;100099.00;4925578;28;30613;-72
2023/01/08 08:31:53;;;;;;;14.35;3.10;;;;;;;7.26;100.00;100106.00;5014605;28;20053;-71
2023/01/08 08:34:21;;;;;;;9.90;2.05;;;;;;;7.11;100.00;100091.91;5029877;28;20486;-72
2023/01/08 08:36:47;;;;;;;5.97;1.33;;;;;;;7.14;100.00;100096.16;5019002;28;20148;-71
2023/01/08 08:39:13;;;;;;;10.60;1.90;;;;;;;7.22;100.00;100099.19;5032813;28;20053;-72
2023/01/08 08:41:38;;;;;;;11.82;1.98;;;;;;;7.17;100.00;100101.28;5011294;28;20063;-72
2023/01/08 08:44:04;;;;;;;6.65;2.15;;;;;;;7.19;100.00;100092.28;5015805;28;20421;-72
2023/01/08 08:46:29;;;;;;;5.07;1.98;;;;;;;7.24;100.00;100089.34;5018793;28;20057;-71
2023/01/08 08:48:55;;;;;;;6.80;1.58;;;;;;;7.41;100.00;100091.81;5036150;28;20052;-71
2023/01/08 08:51:20;;;;;;;7.47;1.23;;;;;;;7.30;100.00;100091.63;5035578;28;20037;-71
2023/01/08 08:53:46;;;;;;;7.95;1.50;;;;;;;7.36;100.00;100087.72;5016175;28;20071;-72
2023/01/08 08:56:11;;;;;;;10.68;1.42;;;;;;;7.36;100.00;100079.78;5037742;28;20866;-71
2023/01/08 08:58:36;;;;;;;12.52;2.05;;;;;;;7.43;100.00;100079.31;5036360;28;20507;-72
2023/01/08 09:01:03;;;;;;;4.32;1.42;;;;;;;7.56;100.00;100067.91;5031512;28;20053;-71
2023/01/08 09:03:29;;;;;;;6.30;1.17;;;;;;;7.62;100.00;100064.88;5001196;28;20807;-72
2023/01/08 09:05:55;;;;;;;10.70;1.42;;;;;;;7.74;100.00;100067.59;5015567;28;20569;-71
2023/01/08 09:08:20;;;;;;;3.42;1.48;;;;;;;7.87;100.00;100072.97;5009549;28;20064;-71
2023/01/08 09:10:46;;;;;;;5.65;1.42;;;;;;;7.88;100.00;100068.50;5031057;28;20041;-74
2023/01/08 09:13:11;;;;;;;7.35;1.13;;;;;;;8.05;100.00;100071.78;5016317;28;20133;-72
2023/01/08 09:15:37;;;;;;;11.50;2.33;;;;;;;8.04;100.00;100063.91;5014276;28;20048;-72
2023/01/08 09:18:03;;;;;;;5.03;2.22;;;;;;;8.12;100.00;100066.91;5035066;28;20056;-71
2023/01/08 09:20:29;;;;;;;7.93;1.60;;;;;;;8.18;100.00;100071.84;5037463;28;20053;-71
2023/01/08 09:22:58;;;;;;;10.30;1.70;;;;;;;8.05;100.00;100065.63;5038429;28;20040;-72
2023/01/08 09:25:23;;;;;;;10.57;1.58;;;;;;;8.09;100.00;100074.25;5036544;28;20045;-72
2023/01/08 09:27:57;;;;;;;12.77;2.22;;;;;;;8.04;100.00;100078.03;5001626;28;20878;-72
2023/01/08 09:30:23;;;;;;;10.70;1.77;;;;;;;8.18;100.00;100073.63;5035868;28;20057;-71
2023/01/08 09:32:48;;;;;;;15.57;1.90;;;;;;;8.17;100.00;100072.75;5014726;28;20062;-71
2023/01/08 09:35:14;;;;;;;7.00;1.65;;;;;;;8.18;100.00;100068.31;5029147;28;20042;-72
2023/01/08 09:37:39;;;;;;;5.13;1.35;;;;;;;8.09;100.00;100072.44;5037332;28;20053;-71
2023/01/08 09:40:05;;;;;;;10.05;2.20;;;;;;;8.21;100.00;100076.06;5019986;28;20122;-72
2023/01/08 09:42:32;;;;;;;7.65;2.47;;;;;;;8.34;100.00;100069.00;5038547;28;20157;-71
2023/01/08 09:45:00;;;;;;;9.82;1.50;;;;;;;8.29;100.00;100061.34;5033217;28;20045;-72
2023/01/08 09:47:37;;;;;;;8.73;1.88;;;;;;;8.38;100.00;100059.88;5036221;28;20056;-72
2023/01/08 09:50:06;;;;;;;13.05;1.85;;;;;;;8.35;100.00;100046.81;5031355;28;20163;-72
2023/01/08 09:52:32;;;;;;;14.27;2.85;;;;;;;8.48;100.00;100057.47;5030733;28;20049;-72
2023/01/08 09:55:00;;;;;;;10.48;2.10;;;;;;;8.45;100.00;100050.56;5034413;28;20049;-72
2023/01/08 09:57:26;;;;;;;8.07;1.92;;;;;;;8.34;100.00;100061.03;5018163;28;20056;-72
2023/01/08 09:59:51;;;;;;;7.40;1.52;;;;;;;8.35;100.00;100048.59;5021933;28;20060;-72
2023/01/08 10:02:23;;;;;;;8.35;1.98;;;;;;;8.37;100.00;100049.38;5029923;28;20037;-72
2023/01/08 10:04:55;;;;;;;10.70;2.27;;;;;;;8.27;100.00;100055.25;5022098;28;20046;-72
2023/01/08 10:07:24;;;;;;;9.07;1.60;;;;;;;8.29;100.00;100047.22;5029416;28;21094;-72
2023/01/08 10:09:51;;;;;;;11.95;1.92;;;;;;;8.21;100.00;100062.81;5033092;28;20037;-72
2023/01/08 10:12:34;;;;;;;12.13;2.10;;;;;;;8.30;100.00;100040.94;5032859;28;20126;-72
2023/01/08 10:15:12;;;;;;;18.05;2.42;;;;;;;8.33;100.00;100038.06;5010977;28;20054;-71
2023/01/08 10:17:44;;;;;;;8.02;1.73;;;;;;;8.38;100.00;100040.44;5035493;28;20072;-72
2023/01/08 10:20:22;;;;;;;4.47;1.50;;;;;;;8.41;100.00;100043.75;5027951;28;20513;-72
2023/01/08 10:22:49;;;;;;;7.50;1.75;;;;;;;8.37;100.00;100046.72;5034286;28;20139;-72
2023/01/08 10:25:18;;;;;;;13.25;1.92;;;;;;;8.40;100.00;100039.41;5038112;28;20051;-72
2023/01/08 10:27:57;;;;;;;8.07;2.85;;;;;;;8.38;100.00;100035.97;5033212;28;20053;-73
2023/01/08 10:30:33;;;;;;;35.20;3.55;;;;;;;8.30;100.00;100032.97;5014194;28;20064;-72
2023/01/08 10:33:05;;;;;;;9.82;1.75;;;;;;;8.30;100.00;100019.69;5025287;28;20127;-72
2023/01/08 10:35:39;;;;;;;12.37;2.43;;;;;;;8.30;100.00;100025.00;5032551;28;20048;-72
2023/01/08 10:38:04;;;;;;;9.63;2.78;;;;;;;8.36;100.00;100011.34;5030976;28;20045;-72
2023/01/08 10:40:44;;;;;;;8.80;1.85;;;;;;;8.28;100.00;100003.88;5030477;28;20037;-71
2023/01/08 10:43:20;;;;;;;13.85;2.10;;;;;;;8.35;100.00;100009.63;5020966;28;20095;-72
2023/01/08 10:46:07;;;;;;;16.80;2.53;;;;;;;8.34;100.00;100001.75;5024384;28;20406;-72
2023/01/08 10:48:39;;;;;;;10.98;1.77;;;;;;;8.32;100.00;100002.69;5012937;28;20064;-72
2023/01/08 10:51:06;;;;;;;10.90;2.10;;;;;;;8.48;100.00;99997.25;5035956;28;20057;-72
2023/01/08 10:53:32;;;;;;;10.65;2.20;;;;;;;8.37;100.00;99993.59;5035472;28;20041;-72
2023/01/08 10:56:00;;;;;;;10.38;2.35;;;;;;;8.41;100.00;99977.34;5038297;28;20513;-72
2023/01/08 10:58:28;;;;;;;9.48;3.15;;;;;;;8.53;100.00;99980.97;5035175;28;20056;-72
2023/01/08 11:00:54;;;;;;;12.82;1.95;;;;;;;8.68;100.00;99981.72;5020837;28;20044;-73
2023/01/08 11:03:31;;;;;;;20.40;4.90;;;;;;;8.73;100.00;99975.09;5036742;28;20558;-72
2023/01/08 11:05:57;;;;;;;6.05;1.92;;;;;;;8.89;100.00;99974.06;5018722;28;20192;-73
2023/01/08 11:08:23;;;;;;;16.35;2.15;;;;;;;8.95;100.00;99973.63;5033671;28;20148;-72
2023/01/08 11:11:00;;;;;;;8.18;1.63;;;;;;;8.86;100.00;99971.63;5012775;28;20053;-72
2023/01/08 11:13:26;;;;;;;9.40;2.17;;;;;;;8.82;100.00;99974.47;5026893;28;20054;-75
2023/01/08 11:16:00;;;;;;;8.27;2.15;;;;;;;8.98;100.00;99962.75;5040678;28;20605;-72
2023/01/08 11:18:27;;;;;;;8.82;1.90;;;;;;;9.35;100.00;99966.31;5040622;28;20090;-72
2023/01/08 11:21:04;;;;;;;11.07;2.42;;;;;;;9.54;100.00;99961.34;5019669;28;20041;-72
2023/01/08 11:23:30;;;;;;;12.38;2.13;;;;;;;9.59;100.00;99961.03;5037460;28;20135;-72
2023/01/08 11:26:08;;;;;;;12.13;1.70;;;;;;;9.69;100.00;99953.16;5021154;28;20045;-73
2023/01/08 11:29:04;;;;;;;6.93;2.00;;;;;;;9.92;100.00;99949.66;5005029;28;20053;-72